Terminal Aerodrome Forecast
Issued by NWS

Home | Current Version | Previous Version | Text Only | Print | Product List | Glossary On
Versions: 1 2 3 4 5 6 7 8 9 10 11 12 13 14 15 16
000
FTUS45 KGJT 181740
TAFDRO
TAF
KDRO 181740Z 1818/1918 25005KT P6SM BKN250
     FM181900 23010G20KT P6SM SCT120 BKN250
     FM190200 24010KT P6SM SCT070 BKN120
      TEMPO 1905/1909 23013G18KT
     FM190900 22008KT P6SM VCSH OVC120
     FM191000 22006KT P6SM -RA OVC050=

USA.gov is the U.S. government's official web portal to all federal, state and local government web resources and services.